Goianapolis, Brazil
Current Conditions -  °F | °C
As of 5:00 PM on Saturday 20 Dec 2014 (Local Time) from SBGO Reporting Station
Light Rain Light Rain  
Wind Chill: 77°   Ceiling: Unl
Heat Index: 79°   Visibility: 6mi
Dew Point: 64°   Wind: 18mph
Humidity: 65%   Direction: 350°N
Pressure: NA   Gusts: NA
Location:  16.51°S, 49.02°W
Report Text: SBGO 201900Z 35016KT 9999 -RA SCT025 FEW030TCU SCT070 25/18 Q1012
Loading
Personal Weather Stations






























Interactive Weather Map New forecast layout! Learn more

10-Day Weather Forecast

Advertisements
Track Severe Weather on mobile